createdAt,value
2019-04-18T00:00:25.740Z,86.94
2019-04-18T00:01:23.251Z,84.84
2019-04-18T00:02:23.247Z,83.51
2019-04-18T00:03:23.238Z,84.94
2019-04-18T00:04:23.233Z,84.46
2019-04-18T00:05:23.225Z,87.89
2019-04-18T00:06:23.217Z,88.65
2019-04-18T00:07:23.214Z,88.27
2019-04-18T00:08:23.206Z,88.27
2019-04-18T00:09:23.199Z,85.13
2019-04-18T00:10:23.195Z,83.80
2019-04-18T00:11:23.192Z,82.65
2019-04-18T00:12:23.461Z,83.51
2019-04-18T00:13:28.319Z,85.89
2019-04-18T00:14:36.061Z,86.65
2019-04-18T00:15:38.008Z,83.41
2019-04-18T00:16:24.605Z,84.75
2019-04-18T00:17:23.149Z,83.70
2019-04-18T00:18:23.138Z,84.17
2019-04-18T00:19:23.135Z,83.22
2019-04-18T00:20:23.128Z,83.13
2019-04-18T00:21:23.117Z,82.56
2019-04-18T00:22:24.282Z,85.32
2019-04-18T00:23:25.885Z,85.22
2019-04-18T00:24:23.097Z,84.46
2019-04-18T00:25:23.095Z,85.70
2019-04-18T00:26:23.084Z,85.80
2019-04-18T00:27:23.082Z,87.32
2019-04-18T00:28:23.072Z,86.75
2019-04-18T00:29:26.448Z,86.36
2019-04-18T00:30:23.061Z,87.23
2019-04-18T00:31:23.051Z,88.84
2019-04-18T00:32:23.045Z,88.18
2019-04-18T00:33:23.042Z,86.65
2019-04-18T00:34:23.031Z,86.46
2019-04-18T00:35:23.029Z,88.37
2019-04-18T00:36:23.018Z,90.56
2019-04-18T00:37:24.117Z,89.79
2019-04-18T00:38:23.004Z,86.61
2019-04-18T00:39:23.000Z,87.41
2019-04-18T00:40:22.994Z,87.27
2019-04-18T00:41:22.986Z,88.79
2019-04-18T00:42:23.093Z,88.99
2019-04-18T00:43:23.876Z,88.37
2019-04-18T00:44:22.964Z,90.03
2019-04-18T00:45:22.959Z,90.03
2019-04-18T00:46:22.950Z,89.27
2019-04-18T00:47:22.948Z,90.99
2019-04-18T00:48:25.635Z,91.46
2019-04-18T00:49:22.928Z,92.41
2019-04-18T00:50:22.924Z,89.37
2019-04-18T00:51:22.916Z,90.89
2019-04-18T00:52:22.914Z,91.84
2019-04-18T00:53:22.903Z,93.37
2019-04-18T00:54:26.406Z,90.42
2019-04-18T00:55:22.891Z,88.32
2019-04-18T00:56:22.884Z,87.27
2019-04-18T00:57:22.878Z,87.94
2019-04-18T00:58:22.867Z,89.94
2019-04-18T00:59:23.934Z,89.47
2019-04-18T01:00:22.859Z,87.08
2019-04-18T01:01:22.847Z,88.79
2019-04-18T01:02:22.841Z,90.80
2019-04-18T01:03:24.672Z,89.94
2019-04-18T01:04:26.816Z,87.46
2019-04-18T01:05:22.819Z,85.94
2019-04-18T01:06:22.810Z,84.52
2019-04-18T01:07:22.807Z,83.47
2019-04-18T01:08:22.796Z,84.52
2019-04-18T01:09:22.789Z,84.89
2019-04-18T01:10:22.786Z,82.65
2019-04-18T01:11:22.774Z,80.84
2019-04-18T01:12:22.770Z,83.51
2019-04-18T01:13:22.760Z,83.51
2019-04-18T01:14:22.758Z,84.13
2019-04-18T01:15:23.408Z,82.93
2019-04-18T01:16:25.209Z,83.85
2019-04-18T01:17:22.737Z,84.33
2019-04-18T01:18:22.724Z,83.13
2019-04-18T01:19:22.719Z,82.99
2019-04-18T01:20:24.127Z,81.76
2019-04-18T01:21:22.710Z,80.90
2019-04-18T01:22:22.700Z,80.27
2019-04-18T01:23:23.249Z,80.18
2019-04-18T01:24:27.474Z,80.55
2019-04-18T01:25:22.683Z,80.94
2019-04-18T01:26:22.676Z,80.27
2019-04-18T01:27:22.664Z,79.99
2019-04-18T01:28:22.654Z,80.27
2019-04-18T01:29:22.649Z,80.36
2019-04-18T01:30:22.641Z,79.99
2019-04-18T01:31:22.632Z,80.94
2019-04-18T01:32:22.626Z,81.89
2019-04-18T01:33:22.618Z,82.56
2019-04-18T01:34:22.611Z,81.23
2019-04-18T01:35:23.570Z,82.56
2019-04-18T01:36:24.886Z,81.89
2019-04-18T01:37:22.593Z,81.41
2019-04-18T01:38:22.588Z,80.18
2019-04-18T01:39:22.574Z,80.36
2019-04-18T01:40:22.570Z,79.51
2019-04-18T01:41:24.527Z,78.69
2019-04-18T01:42:22.558Z,78.75
2019-04-18T01:43:22.545Z,79.13
2019-04-18T01:44:22.538Z,78.41
2019-04-18T01:45:22.536Z,78.50
2019-04-18T01:46:23.291Z,79.27
2019-04-18T01:47:25.093Z,78.98
2019-04-18T01:48:22.512Z,78.50
2019-04-18T01:49:22.515Z,78.98
2019-04-18T01:50:22.503Z,80.12
2019-04-18T01:51:22.642Z,80.02
2019-04-18T01:52:26.636Z,80.02
2019-04-18T01:53:24.732Z,79.55
2019-04-18T01:54:22.467Z,80.50
2019-04-18T01:55:22.463Z,78.88
2019-04-18T01:56:23.846Z,77.64
2019-04-18T01:57:27.479Z,78.41
2019-04-18T01:58:22.439Z,77.83
2019-04-18T01:59:22.431Z,77.74
2019-04-18T02:00:22.431Z,77.74
2019-04-18T02:01:22.501Z,78.41
2019-04-18T02:02:23.824Z,78.88
2019-04-18T02:03:22.403Z,78.12
2019-04-18T02:04:22.411Z,78.16
2019-04-18T02:05:22.392Z,77.30
2019-04-18T02:06:22.383Z,78.54
2019-04-18T02:07:22.383Z,78.92
2019-04-18T02:08:22.368Z,78.16
2019-04-18T02:09:24.224Z,78.54
2019-04-18T02:10:22.358Z,78.92
2019-04-18T02:11:22.348Z,79.30
2019-04-18T02:12:22.341Z,77.20
2019-04-18T02:13:22.332Z,78.64
2019-04-18T02:14:25.540Z,77.20
2019-04-18T02:15:22.326Z,76.25
2019-04-18T02:16:22.311Z,77.30
2019-04-18T02:17:22.305Z,77.30
2019-04-18T02:18:22.452Z,76.73
2019-04-18T02:19:24.137Z,77.20
2019-04-18T02:20:22.285Z,77.20
2019-04-18T02:21:22.276Z,77.11
2019-04-18T02:22:22.268Z,77.30
2019-04-18T02:23:22.977Z,76.82
2019-04-18T02:24:22.254Z,75.78
2019-04-18T02:25:22.252Z,75.96
2019-04-18T02:26:22.239Z,77.40
2019-04-18T02:27:26.535Z,77.78
2019-04-18T02:28:22.227Z,78.25
2019-04-18T02:29:22.230Z,77.69
2019-04-18T02:30:22.695Z,77.97
2019-04-18T02:31:22.204Z,77.30
2019-04-18T02:32:22.199Z,77.11
2019-04-18T02:33:22.193Z,76.64
2019-04-18T02:34:22.184Z,77.87
2019-04-18T02:35:22.998Z,76.44
2019-04-18T02:36:22.170Z,78.16
2019-04-18T02:37:22.179Z,77.20
2019-04-18T02:38:22.156Z,76.54
2019-04-18T02:39:27.849Z,78.16
2019-04-18T02:40:22.145Z,78.16
2019-04-18T02:41:22.137Z,77.40
2019-04-18T02:42:22.131Z,76.44
2019-04-18T02:43:22.830Z,77.69
2019-04-18T02:44:26.921Z,77.87
2019-04-18T02:45:22.111Z,77.01
2019-04-18T02:46:22.100Z,78.25
2019-04-18T02:47:22.098Z,76.92
2019-04-18T02:48:25.496Z,77.87
2019-04-18T02:49:22.083Z,76.64
2019-04-18T02:50:22.074Z,77.40
2019-04-18T02:51:22.066Z,77.30
2019-04-18T02:52:24.760Z,77.11
2019-04-18T02:53:22.048Z,77.01
2019-04-18T02:54:22.043Z,77.01
2019-04-18T02:55:22.040Z,77.40
2019-04-18T02:56:24.272Z,76.25
2019-04-18T02:57:22.040Z,76.54
2019-04-18T02:58:22.014Z,77.49
2019-04-18T02:59:22.013Z,79.30
2019-04-18T03:00:22.212Z,79.59
2019-04-18T03:01:27.245Z,78.83
2019-04-18T03:02:21.992Z,77.78
2019-04-18T03:03:21.982Z,77.40
2019-04-18T03:04:21.974Z,77.40
2019-04-18T03:05:32.620Z,76.92
2019-04-18T03:06:21.959Z,76.67
2019-04-18T03:07:23.254Z,76.77
2019-04-18T03:08:24.936Z,76.01
2019-04-18T03:09:21.938Z,75.43
2019-04-18T03:10:21.936Z,75.43
2019-04-18T03:11:21.923Z,75.62
2019-04-18T03:12:24.952Z,75.15
2019-04-18T03:13:21.909Z,77.34
2019-04-18T03:14:21.900Z,77.53
2019-04-18T03:15:21.896Z,77.25
2019-04-18T03:16:24.410Z,78.39
2019-04-18T03:17:21.885Z,78.39
2019-04-18T03:18:21.877Z,78.49
2019-04-18T03:19:21.868Z,79.02
2019-04-18T03:20:21.862Z,78.92
2019-04-18T03:21:25.403Z,78.73
2019-04-18T03:22:21.849Z,79.49
2019-04-18T03:23:21.838Z,79.40
2019-04-18T03:24:21.832Z,78.64
2019-04-18T03:25:22.651Z,78.83
2019-04-18T03:26:23.773Z,78.44
2019-04-18T03:27:21.812Z,77.78
2019-04-18T03:28:21.802Z,79.35
2019-04-18T03:29:21.796Z,78.83
2019-04-18T03:30:28.682Z,79.11
2019-04-18T03:31:25.226Z,78.83
2019-04-18T03:32:21.778Z,80.16
2019-04-18T03:33:23.653Z,78.25
2019-04-18T03:34:21.760Z,79.49
2019-04-18T03:35:21.755Z,78.25
2019-04-18T03:36:21.746Z,78.16
2019-04-18T03:37:21.741Z,78.44
2019-04-18T03:38:21.732Z,78.44
2019-04-18T03:39:21.726Z,78.73
2019-04-18T03:40:24.878Z,77.78
2019-04-18T03:41:21.712Z,78.25
2019-04-18T03:42:21.706Z,78.44
2019-04-18T03:43:21.695Z,78.54
2019-04-18T03:44:21.689Z,78.54
2019-04-18T03:45:22.527Z,77.87
2019-04-18T03:46:25.469Z,78.54
2019-04-18T03:47:21.670Z,78.92
2019-04-18T03:48:21.665Z,79.11
2019-04-18T03:49:21.655Z,79.30
2019-04-18T03:50:21.645Z,79.88
2019-04-18T03:51:23.677Z,78.92
2019-04-18T03:52:24.766Z,78.64
2019-04-18T03:53:21.626Z,78.35
2019-04-18T03:54:21.618Z,78.64
2019-04-18T03:55:22.871Z,79.40
2019-04-18T03:56:21.604Z,80.07
2019-04-18T03:57:21.602Z,79.30
2019-04-18T03:58:21.590Z,78.44
2019-04-18T03:59:21.583Z,79.02
2019-04-18T04:00:25.278Z,79.68
2019-04-18T04:01:21.566Z,79.88
2019-04-18T04:02:21.563Z,80.26
2019-04-18T04:03:21.557Z,79.78
2019-04-18T04:04:22.370Z,79.40
2019-04-18T04:05:23.943Z,80.26
2019-04-18T04:06:21.533Z,80.54
2019-04-18T04:07:21.747Z,80.07
2019-04-18T04:08:21.516Z,79.59
2019-04-18T04:09:21.510Z,80.07
2019-04-18T04:10:21.505Z,79.88
2019-04-18T04:11:22.484Z,80.07
2019-04-18T04:12:23.993Z,79.68
2019-04-18T04:13:21.486Z,79.59
2019-04-18T04:14:21.473Z,79.88
2019-04-18T04:15:21.471Z,79.78
2019-04-18T04:16:23.218Z,80.26
2019-04-18T04:17:21.456Z,79.11
2019-04-18T04:18:21.443Z,80.35
2019-04-18T04:19:22.260Z,80.83
2019-04-18T04:20:23.114Z,81.12
2019-04-18T04:21:21.421Z,80.44
2019-04-18T04:22:21.415Z,81.21
2019-04-18T04:23:21.408Z,80.64
2019-04-18T04:24:21.401Z,81.59
2019-04-18T04:25:21.392Z,82.26
2019-04-18T04:26:21.384Z,82.45
2019-04-18T04:27:22.547Z,82.50
2019-04-18T04:28:23.944Z,81.68
2019-04-18T04:29:21.365Z,82.07
2019-04-18T04:30:21.359Z,82.03
2019-04-18T04:31:23.324Z,82.21
2019-04-18T04:32:21.347Z,82.89
2019-04-18T04:33:21.341Z,84.12
2019-04-18T04:34:21.324Z,84.60
2019-04-18T04:35:21.323Z,84.22
2019-04-18T04:36:26.132Z,83.65
2019-04-18T04:37:36.904Z,84.12
2019-04-18T04:38:21.295Z,84.41
2019-04-18T04:39:24.187Z,84.31
2019-04-18T04:40:21.286Z,84.12
2019-04-18T04:41:21.279Z,84.88
2019-04-18T04:42:21.280Z,85.08
2019-04-18T04:43:21.738Z,84.88
2019-04-18T04:44:26.527Z,84.69
2019-04-18T04:45:21.249Z,83.93
2019-04-18T04:46:21.242Z,85.84
2019-04-18T04:47:21.269Z,85.74
2019-04-18T04:48:23.461Z,85.74
2019-04-18T04:49:21.218Z,84.79
2019-04-18T04:50:21.212Z,84.31
2019-04-18T04:51:21.202Z,84.03
2019-04-18T04:52:22.790Z,83.36
2019-04-18T04:53:21.187Z,84.31
2019-04-18T04:54:21.183Z,85.08
2019-04-18T04:55:21.177Z,85.46
2019-04-18T04:56:21.169Z,86.51
2019-04-18T04:57:24.730Z,85.55
2019-04-18T04:58:21.149Z,86.51
2019-04-18T04:59:21.170Z,86.60
2019-04-18T05:00:24.103Z,86.98
2019-04-18T05:01:21.129Z,86.79
2019-04-18T05:02:21.122Z,86.51
2019-04-18T05:03:21.122Z,86.51
2019-04-18T05:04:22.328Z,85.36
2019-04-18T05:05:21.101Z,86.12
2019-04-18T05:06:35.459Z,85.74
2019-04-18T05:07:21.087Z,85.84
2019-04-18T05:08:21.081Z,85.74
2019-04-18T05:09:21.070Z,85.84
2019-04-18T05:10:21.064Z,86.51
2019-04-18T05:11:22.608Z,86.60
2019-04-18T05:12:23.894Z,85.93
2019-04-18T05:13:21.041Z,86.22
2019-04-18T05:14:21.030Z,86.69
2019-04-18T05:15:21.025Z,86.98
2019-04-18T05:16:21.020Z,87.93
2019-04-18T05:17:21.011Z,87.36
2019-04-18T05:18:21.001Z,87.36
2019-04-18T05:19:20.994Z,87.55
2019-04-18T05:20:20.989Z,87.36
2019-04-18T05:21:20.980Z,87.46
2019-04-18T05:22:20.974Z,88.41
2019-04-18T05:23:20.964Z,89.17
2019-04-18T05:24:25.449Z,88.89
2019-04-18T05:25:20.954Z,88.41
2019-04-18T05:26:20.942Z,88.51
2019-04-18T05:27:20.943Z,87.55
2019-04-18T05:28:20.926Z,87.36
2019-04-18T05:29:20.919Z,86.69
2019-04-18T05:30:20.916Z,85.84
2019-04-18T05:31:21.840Z,85.84
2019-04-18T05:32:20.901Z,86.22
2019-04-18T05:33:20.893Z,86.22
2019-04-18T05:34:20.883Z,85.97
2019-04-18T05:35:23.750Z,85.60
2019-04-18T05:36:22.754Z,85.50
2019-04-18T05:37:20.862Z,85.50
2019-04-18T05:38:22.589Z,85.31
2019-04-18T05:39:20.846Z,84.45
2019-04-18T05:40:23.523Z,83.59
2019-04-18T05:41:22.877Z,83.40
2019-04-18T05:42:22.672Z,83.59
2019-04-18T05:43:25.566Z,82.83
2019-04-18T05:44:20.814Z,82.87
2019-04-18T05:45:24.657Z,82.78
2019-04-18T05:46:22.117Z,82.68
2019-04-18T05:47:20.790Z,81.73
2019-04-18T05:48:20.779Z,82.01
2019-04-18T05:49:20.772Z,82.11
2019-04-18T05:50:20.768Z,81.82
2019-04-18T05:51:21.676Z,81.44
2019-04-18T05:52:23.028Z,80.39
2019-04-18T05:53:20.743Z,81.15
2019-04-18T05:54:20.733Z,80.49
2019-04-18T05:55:22.101Z,80.77
2019-04-18T05:56:20.720Z,81.63
2019-04-18T05:57:20.714Z,81.73
2019-04-18T05:58:20.710Z,81.82
2019-04-18T05:59:22.344Z,81.35
2019-04-18T06:00:24.355Z,80.77
2019-04-18T06:01:20.687Z,80.68
2019-04-18T06:02:23.609Z,80.11
2019-04-18T06:03:23.003Z,80.62
2019-04-18T06:04:20.660Z,80.68
2019-04-18T06:05:20.657Z,80.24
2019-04-18T06:06:20.644Z,79.77
2019-04-18T06:07:25.294Z,79.19
2019-04-18T06:08:20.633Z,79.10
2019-04-18T06:09:20.625Z,78.91
2019-04-18T06:10:20.614Z,79.00
2019-04-18T06:11:24.135Z,78.72
2019-04-18T06:12:20.603Z,79.38
2019-04-18T06:13:20.594Z,79.96
2019-04-18T06:14:20.586Z,78.91
2019-04-18T06:15:23.741Z,78.05
2019-04-18T06:16:20.571Z,78.14
2019-04-18T06:17:20.568Z,77.95
2019-04-18T06:18:20.556Z,78.62
2019-04-18T06:19:23.015Z,78.72
2019-04-18T06:20:20.545Z,77.86
2019-04-18T06:21:20.540Z,78.66
2019-04-18T06:22:20.529Z,79.52
2019-04-18T06:23:22.767Z,78.52
2019-04-18T06:24:20.512Z,78.47
2019-04-18T06:25:22.887Z,78.28
2019-04-18T06:26:20.501Z,77.70
2019-04-18T06:27:20.962Z,78.94
2019-04-18T06:28:20.484Z,77.99
2019-04-18T06:29:20.477Z,78.09
2019-04-18T06:30:20.471Z,78.09
2019-04-18T06:31:20.795Z,77.99
2019-04-18T06:32:20.471Z,77.89
2019-04-18T06:33:21.902Z,77.61
2019-04-18T06:34:20.555Z,77.51
2019-04-18T06:35:20.434Z,76.75
2019-04-18T06:36:23.357Z,77.03
2019-04-18T06:37:29.930Z,77.23
2019-04-18T06:38:20.727Z,77.51
2019-04-18T06:39:23.976Z,77.42
2019-04-18T06:40:20.927Z,77.99
2019-04-18T06:41:20.393Z,77.61
2019-04-18T06:42:20.633Z,76.79
2019-04-18T06:43:24.628Z,76.79
2019-04-18T06:44:20.377Z,76.21
2019-04-18T06:45:20.362Z,76.98
2019-04-18T06:46:23.308Z,77.36
2019-04-18T06:47:21.086Z,76.79
2019-04-18T06:48:20.342Z,75.83
2019-04-18T06:49:20.335Z,75.54
2019-04-18T06:50:23.463Z,76.12
2019-04-18T06:51:20.320Z,76.12
2019-04-18T06:52:20.312Z,75.54
2019-04-18T06:53:22.544Z,75.64
2019-04-18T06:54:20.299Z,76.31
2019-04-18T06:55:20.296Z,75.93
2019-04-18T06:56:20.284Z,76.31
2019-04-18T06:57:25.086Z,75.54
2019-04-18T06:58:33.561Z,74.98
2019-04-18T06:59:21.976Z,75.07
2019-04-18T07:00:20.266Z,75.35
2019-04-18T07:01:20.482Z,74.63
2019-04-18T07:02:20.246Z,75.87
2019-04-18T07:03:22.357Z,74.78
2019-04-18T07:04:20.230Z,74.82
2019-04-18T07:05:20.226Z,73.96
2019-04-18T07:06:31.863Z,74.44
2019-04-18T07:07:21.809Z,75.10
2019-04-18T07:08:24.833Z,74.44
2019-04-18T07:09:20.431Z,74.44
2019-04-18T07:10:20.195Z,73.10
2019-04-18T07:11:20.708Z,74.15
2019-04-18T07:12:20.209Z,74.34
2019-04-18T07:13:22.348Z,72.91
2019-04-18T07:14:20.190Z,72.81
2019-04-18T07:15:20.156Z,74.05
2019-04-18T07:16:20.152Z,73.48
2019-04-18T07:17:22.638Z,72.94
2019-04-18T07:18:20.753Z,72.85
2019-04-18T07:19:20.128Z,72.66
2019-04-18T07:20:20.890Z,72.85
2019-04-18T07:21:21.133Z,74.09
2019-04-18T07:22:20.109Z,73.80
2019-04-18T07:23:20.209Z,73.80
2019-04-18T07:24:20.107Z,73.14
2019-04-18T07:25:20.093Z,73.33
2019-04-18T07:26:20.081Z,72.28
2019-04-18T07:27:20.156Z,73.33
2019-04-18T07:28:24.626Z,72.56
2019-04-18T07:29:20.060Z,72.75
2019-04-18T07:30:20.057Z,71.89
2019-04-18T07:31:25.898Z,71.70
2019-04-18T07:32:20.043Z,71.42
2019-04-18T07:33:20.040Z,70.56
2019-04-18T07:34:20.029Z,71.89
2019-04-18T07:35:24.004Z,72.08
2019-04-18T07:36:20.030Z,72.12
2019-04-18T07:37:20.523Z,71.73
2019-04-18T07:38:22.093Z,71.73
2019-04-18T07:39:20.117Z,71.55
2019-04-18T07:40:19.995Z,72.69
2019-04-18T07:41:21.042Z,71.26
2019-04-18T07:42:19.978Z,70.50
2019-04-18T07:43:20.053Z,70.78
2019-04-18T07:44:19.967Z,70.11
2019-04-18T07:45:20.278Z,69.92
2019-04-18T07:46:19.953Z,69.35
2019-04-18T07:47:20.345Z,69.82
2019-04-18T07:48:19.938Z,69.15
2019-04-18T07:49:20.395Z,68.58
2019-04-18T07:50:19.930Z,69.73
2019-04-18T07:51:19.920Z,69.35
2019-04-18T07:52:20.089Z,68.96
2019-04-18T07:53:21.488Z,69.19
2019-04-18T07:54:19.900Z,69.09
2019-04-18T07:55:20.546Z,69.76
2019-04-18T07:56:20.273Z,69.76
2019-04-18T07:57:24.036Z,69.48
2019-04-18T07:58:23.645Z,69.48
2019-04-18T07:59:20.016Z,69.86
2019-04-18T08:00:19.863Z,69.67
2019-04-18T08:01:24.039Z,68.62
2019-04-18T08:02:19.853Z,68.23
2019-04-18T08:03:23.687Z,67.94
2019-04-18T08:04:19.838Z,68.04
2019-04-18T08:05:19.834Z,68.23
2019-04-18T08:06:23.960Z,68.27
2019-04-18T08:07:19.821Z,67.79
2019-04-18T08:08:19.811Z,68.74
2019-04-18T08:09:19.806Z,68.36
2019-04-18T08:10:24.723Z,69.51
2019-04-18T08:11:20.059Z,69.32
2019-04-18T08:12:20.299Z,69.32
2019-04-18T08:13:19.993Z,68.46
2019-04-18T08:14:19.787Z,67.69
2019-04-18T08:15:19.777Z,67.69
2019-04-18T08:16:19.924Z,68.17
2019-04-18T08:17:19.938Z,68.27
2019-04-18T08:18:19.751Z,67.88
2019-04-18T08:19:19.750Z,68.30
2019-04-18T08:20:19.745Z,67.25
2019-04-18T08:21:19.735Z,66.86
2019-04-18T08:22:20.295Z,66.00
2019-04-18T08:23:24.687Z,65.81
2019-04-18T08:24:20.174Z,65.91
2019-04-18T08:25:21.691Z,66.67
2019-04-18T08:26:20.819Z,67.63
2019-04-18T08:27:19.702Z,67.82
2019-04-18T08:28:19.699Z,66.96
2019-04-18T08:29:25.609Z,65.81
2019-04-18T08:30:25.441Z,65.52
2019-04-18T08:31:19.678Z,65.71
2019-04-18T08:32:20.255Z,66.09
2019-04-18T08:33:19.673Z,66.00
2019-04-18T08:34:20.319Z,65.52
2019-04-18T08:35:19.656Z,65.91
2019-04-18T08:36:20.239Z,65.14
2019-04-18T08:37:22.000Z,64.28
2019-04-18T08:38:23.408Z,64.09
2019-04-18T08:39:19.809Z,64.56
2019-04-18T08:40:19.628Z,64.76
2019-04-18T08:41:22.318Z,65.46
2019-04-18T08:42:19.619Z,64.79
2019-04-18T08:43:19.611Z,63.92
2019-04-18T08:44:23.356Z,64.89
2019-04-18T08:45:19.603Z,64.79
2019-04-18T08:46:19.594Z,64.89
2019-04-18T08:47:19.592Z,64.89
2019-04-18T08:48:22.958Z,64.89
2019-04-18T08:49:19.580Z,64.59
2019-04-18T08:50:19.578Z,64.79
2019-04-18T08:51:20.003Z,64.22
2019-04-18T08:52:19.565Z,63.73
2019-04-18T08:53:19.940Z,63.73
2019-04-18T08:54:19.552Z,64.02
2019-04-18T08:55:23.522Z,64.59
2019-04-18T08:56:20.043Z,63.64
2019-04-18T08:57:19.539Z,63.83
2019-04-18T08:58:19.531Z,64.22
2019-04-18T08:59:19.528Z,63.92
2019-04-18T09:00:19.530Z,63.73
2019-04-18T09:01:20.009Z,63.92
2019-04-18T09:02:20.026Z,64.40
2019-04-18T09:03:26.739Z,63.73
2019-04-18T09:04:19.505Z,63.26
2019-04-18T09:05:27.659Z,64.12
2019-04-18T09:06:30.521Z,63.83
2019-04-18T09:07:20.045Z,63.83
2019-04-18T09:08:20.011Z,63.26
2019-04-18T09:09:23.716Z,63.64
2019-04-18T09:10:19.823Z,64.79
2019-04-18T09:11:24.774Z,64.79
2019-04-18T09:12:19.900Z,65.08
2019-04-18T09:13:27.804Z,65.55
2019-04-18T09:14:20.513Z,64.12
2019-04-18T09:15:19.628Z,63.64
2019-04-18T09:16:20.650Z,63.64
2019-04-18T09:17:20.082Z,63.64
2019-04-18T09:18:23.148Z,63.73
2019-04-18T09:19:19.919Z,64.02
2019-04-18T09:20:21.054Z,63.06
2019-04-18T09:21:23.743Z,63.73
2019-04-18T09:22:20.077Z,63.54
2019-04-18T09:23:20.355Z,62.30
2019-04-18T09:24:22.489Z,62.42
2019-04-18T09:25:19.751Z,63.09
2019-04-18T09:26:20.462Z,62.90
2019-04-18T09:27:22.101Z,63.76
2019-04-18T09:28:19.803Z,63.73
2019-04-18T09:29:19.380Z,63.76
2019-04-18T09:30:24.224Z,63.29
2019-04-18T09:31:19.365Z,63.76
2019-04-18T09:32:19.367Z,63.67
2019-04-18T09:33:20.771Z,63.76
2019-04-18T09:34:19.354Z,63.57
2019-04-18T09:35:19.347Z,63.19
2019-04-18T09:36:19.610Z,63.19
2019-04-18T09:37:19.545Z,62.23
2019-04-18T09:38:19.336Z,62.16
2019-04-18T09:39:19.328Z,61.49
2019-04-18T09:40:22.749Z,60.53
2019-04-18T09:41:19.318Z,61.30
2019-04-18T09:42:19.319Z,60.72
2019-04-18T09:43:24.549Z,61.69
2019-04-18T09:44:20.712Z,61.43
2019-04-18T09:45:29.343Z,60.75
2019-04-18T09:46:19.599Z,59.89
2019-04-18T09:47:21.435Z,59.80
2019-04-18T09:48:19.288Z,59.83
2019-04-18T09:49:19.283Z,60.50
2019-04-18T09:50:19.278Z,59.19
2019-04-18T09:51:19.844Z,58.00
2019-04-18T09:52:19.271Z,57.23
2019-04-18T09:53:19.264Z,57.90
2019-04-18T09:54:19.258Z,57.52
2019-04-18T09:55:19.256Z,57.52
2019-04-18T09:56:19.254Z,58.58
2019-04-18T09:57:19.367Z,58.77
2019-04-18T09:58:19.241Z,58.61
2019-04-18T09:59:19.237Z,58.61
2019-04-18T10:00:24.300Z,57.97
2019-04-18T10:01:19.230Z,57.68
2019-04-18T10:02:19.227Z,56.62
2019-04-18T10:03:19.219Z,56.23
2019-04-18T10:04:19.216Z,55.76
2019-04-18T10:05:25.985Z,56.23
2019-04-18T10:06:19.208Z,56.52
2019-04-18T10:07:19.208Z,57.20
2019-04-18T10:08:19.200Z,56.33
2019-04-18T10:09:19.306Z,56.07
2019-04-18T10:10:19.513Z,55.98
2019-04-18T10:11:19.191Z,55.68
2019-04-18T10:12:19.257Z,54.82
2019-04-18T10:13:19.261Z,55.78
2019-04-18T10:14:19.653Z,57.13
2019-04-18T10:15:25.731Z,55.98
2019-04-18T10:16:19.885Z,55.11
2019-04-18T10:17:19.198Z,55.11
2019-04-18T10:18:21.630Z,55.49
2019-04-18T10:19:19.157Z,56.26
2019-04-18T10:20:19.158Z,55.78
2019-04-18T10:21:22.912Z,55.78
2019-04-18T10:22:19.238Z,54.85
2019-04-18T10:23:19.535Z,54.75
2019-04-18T10:24:19.142Z,54.46
2019-04-18T10:25:19.141Z,54.43
2019-04-18T10:26:19.250Z,54.27
2019-04-18T10:27:19.266Z,55.33
2019-04-18T10:28:19.342Z,54.36
2019-04-18T10:29:19.123Z,53.50
2019-04-18T10:30:27.636Z,54.17
2019-04-18T10:31:19.230Z,54.08
2019-04-18T10:32:19.118Z,54.75
2019-04-18T10:33:19.738Z,54.46
2019-04-18T10:34:19.103Z,53.50
2019-04-18T10:35:19.570Z,53.69
2019-04-18T10:36:19.236Z,52.92
2019-04-18T10:37:19.099Z,52.63
2019-04-18T10:38:19.093Z,53.02
2019-04-18T10:39:24.010Z,53.98
2019-04-18T10:40:19.085Z,54.56
2019-04-18T10:41:19.084Z,54.36
2019-04-18T10:42:19.081Z,53.11
2019-04-18T10:43:19.074Z,51.67
2019-04-18T10:44:19.076Z,52.44
2019-04-18T10:45:19.070Z,52.92
2019-04-18T10:46:19.813Z,54.56
2019-04-18T10:47:19.671Z,54.17
2019-04-18T10:48:19.058Z,53.33
2019-04-18T10:49:19.056Z,52.34
2019-04-18T10:50:19.053Z,52.15
2019-04-18T10:51:19.158Z,53.69
2019-04-18T10:52:19.049Z,52.54
2019-04-18T10:53:19.048Z,53.50
2019-04-18T10:54:19.045Z,52.15
2019-04-18T10:55:20.550Z,52.15
2019-04-18T10:56:19.032Z,52.63
2019-04-18T10:57:19.034Z,53.50
2019-04-18T10:58:19.030Z,52.47
2019-04-18T10:59:19.029Z,52.56
2019-04-18T11:00:19.036Z,52.97
2019-04-18T11:01:19.018Z,53.27
2019-04-18T11:02:19.018Z,53.58
2019-04-18T11:03:19.013Z,50.98
2019-04-18T11:04:21.238Z,51.36
2019-04-18T11:05:19.013Z,50.59
2019-04-18T11:06:22.655Z,50.62
2019-04-18T11:07:19.004Z,49.94
2019-04-18T11:08:18.997Z,50.23
2019-04-18T11:09:18.997Z,49.94
2019-04-18T11:10:19.003Z,50.32
2019-04-18T11:11:19.248Z,49.65
2019-04-18T11:12:19.690Z,50.32
2019-04-18T11:13:18.986Z,51.70
2019-04-18T11:14:19.031Z,50.26
2019-04-18T11:15:19.039Z,50.45
2019-04-18T11:16:18.982Z,50.06
2019-04-18T11:17:21.201Z,49.87
2019-04-18T11:18:18.975Z,48.71
2019-04-18T11:19:18.969Z,48.61
2019-04-18T11:20:18.975Z,46.97
2019-04-18T11:21:18.979Z,46.18
2019-04-18T11:22:19.270Z,47.05
2019-04-18T11:23:18.962Z,49.65
2019-04-18T11:24:18.960Z,48.42
2019-04-18T11:25:18.961Z,48.81
2019-04-18T11:26:18.955Z,47.75
2019-04-18T11:27:18.961Z,46.97
2019-04-18T11:28:18.953Z,48.61
2019-04-18T11:29:18.950Z,47.77
2019-04-18T11:30:23.416Z,48.06
2019-04-18T11:31:18.945Z,47.67
2019-04-18T11:32:22.201Z,47.50
2019-04-18T11:33:18.944Z,46.54
2019-04-18T11:34:18.941Z,45.67
2019-04-18T11:35:18.956Z,44.87
2019-04-18T11:36:18.938Z,46.23
2019-04-18T11:37:18.940Z,45.26
2019-04-18T11:38:18.937Z,45.84
2019-04-18T11:39:22.950Z,45.26
2019-04-18T11:40:18.930Z,44.39
2019-04-18T11:41:18.930Z,44.39
2019-04-18T11:42:18.932Z,46.03
2019-04-18T11:43:18.929Z,45.75
2019-04-18T11:44:18.929Z,45.36
2019-04-18T11:45:18.931Z,45.65
2019-04-18T11:46:18.926Z,45.28
2019-04-18T11:47:18.931Z,45.57
2019-04-18T11:48:18.928Z,45.28
2019-04-18T11:49:19.213Z,44.53
2019-04-18T11:50:19.302Z,44.32
2019-04-18T11:51:18.931Z,43.84
2019-04-18T11:52:18.931Z,44.05
2019-04-18T11:53:18.931Z,44.53
2019-04-18T11:54:18.937Z,45.31
2019-04-18T11:55:18.939Z,44.82
2019-04-18T11:56:18.934Z,44.15
2019-04-18T11:57:18.941Z,44.43
2019-04-18T11:58:18.937Z,44.56
2019-04-18T11:59:18.941Z,43.98
2019-04-18T12:00:18.947Z,44.36
2019-04-18T12:01:29.380Z,43.61
2019-04-18T12:02:18.949Z,41.75
2019-04-18T12:03:18.951Z,42.07
2019-04-18T12:04:18.950Z,42.24
2019-04-18T12:05:21.958Z,43.10
2019-04-18T12:06:18.954Z,44.87
2019-04-18T12:07:18.958Z,44.38
2019-04-18T12:08:18.958Z,44.48
2019-04-18T12:09:18.960Z,43.32
2019-04-18T12:10:18.963Z,42.35
2019-04-18T12:11:18.965Z,43.54
2019-04-18T12:12:18.972Z,44.31
2019-04-18T12:13:18.972Z,41.79
2019-04-18T12:14:18.984Z,42.76
2019-04-18T12:15:18.977Z,42.47
2019-04-18T12:16:18.980Z,43.24
2019-04-18T12:17:18.985Z,41.99
2019-04-18T12:18:18.985Z,41.79
2019-04-18T12:19:18.986Z,41.79
2019-04-18T12:20:18.996Z,42.76
2019-04-18T12:21:18.994Z,43.85
2019-04-18T12:22:19.017Z,41.79
2019-04-18T12:23:18.999Z,42.78
2019-04-18T12:24:19.004Z,42.68
2019-04-18T12:25:19.012Z,42.49
2019-04-18T12:26:19.006Z,42.88
2019-04-18T12:27:19.168Z,42.20
2019-04-18T12:28:19.012Z,42.20
2019-04-18T12:29:19.018Z,41.62
2019-04-18T12:30:19.022Z,40.94
2019-04-18T12:31:30.596Z,40.56
2019-04-18T12:32:19.027Z,40.73
2019-04-18T12:33:19.027Z,40.73
2019-04-18T12:34:22.658Z,42.28
2019-04-18T12:35:19.035Z,41.60
2019-04-18T12:36:19.032Z,41.02
2019-04-18T12:37:19.039Z,41.89
2019-04-18T12:38:19.037Z,41.89
2019-04-18T12:39:19.036Z,40.83
2019-04-18T12:40:19.039Z,40.34
2019-04-18T12:41:19.039Z,41.33
2019-04-18T12:42:19.054Z,41.21
2019-04-18T12:43:19.042Z,41.11
2019-04-18T12:44:19.046Z,41.60
2019-04-18T12:45:21.152Z,42.18
2019-04-18T12:46:19.048Z,42.47
2019-04-18T12:47:19.054Z,41.79
2019-04-18T12:48:19.056Z,40.92
2019-04-18T12:49:19.053Z,41.89
2019-04-18T12:50:19.344Z,42.28
2019-04-18T12:51:19.055Z,41.60
2019-04-18T12:52:19.069Z,40.53